sensor_id;sensor_type;location;lat;lon;timestamp;temperature;humidity
68691;DHT22;55675;49.588;8.640;2022-12-18T00:00:53;-3.00;88.30
68691;DHT22;55675;49.588;8.640;2022-12-18T00:03:18;-2.90;88.00
68691;DHT22;55675;49.588;8.640;2022-12-18T00:05:48;-3.00;87.60
68691;DHT22;55675;49.588;8.640;2022-12-18T00:08:14;-3.20;87.50
68691;DHT22;55675;49.588;8.640;2022-12-18T00:10:40;-3.20;87.80
68691;DHT22;55675;49.588;8.640;2022-12-18T00:13:06;-3.30;88.10
68691;DHT22;55675;49.588;8.640;2022-12-18T00:15:34;-3.30;88.20
68691;DHT22;55675;49.588;8.640;2022-12-18T00:18:00;-3.20;88.50
68691;DHT22;55675;49.588;8.640;2022-12-18T00:20:25;-3.10;88.40
68691;DHT22;55675;49.588;8.640;2022-12-18T00:22:54;-3.00;88.30
68691;DHT22;55675;49.588;8.640;2022-12-18T00:25:20;-3.10;87.70
68691;DHT22;55675;49.588;8.640;2022-12-18T00:27:46;-3.00;88.10
68691;DHT22;55675;49.588;8.640;2022-12-18T00:30:12;-3.00;88.10
68691;DHT22;55675;49.588;8.640;2022-12-18T00:32:37;-2.90;88.00
68691;DHT22;55675;49.588;8.640;2022-12-18T00:35:04;-3.00;87.20
68691;DHT22;55675;49.588;8.640;2022-12-18T00:37:29;-3.00;87.30
68691;DHT22;55675;49.588;8.640;2022-12-18T00:39:55;-3.00;87.50
68691;DHT22;55675;49.588;8.640;2022-12-18T00:42:21;-3.00;87.70
68691;DHT22;55675;49.588;8.640;2022-12-18T00:45:05;-3.00;87.50
68691;DHT22;55675;49.588;8.640;2022-12-18T00:47:31;-3.00;87.10
68691;DHT22;55675;49.588;8.640;2022-12-18T00:49:57;-3.10;87.00
68691;DHT22;55675;49.588;8.640;2022-12-18T00:52:22;-3.20;87.00
68691;DHT22;55675;49.588;8.640;2022-12-18T00:54:48;-3.10;87.20
68691;DHT22;55675;49.588;8.640;2022-12-18T00:57:13;-3.10;87.20
68691;DHT22;55675;49.588;8.640;2022-12-18T00:59:39;-3.00;87.20
68691;DHT22;55675;49.588;8.640;2022-12-18T01:02:04;-3.10;87.70
68691;DHT22;55675;49.588;8.640;2022-12-18T01:04:31;-3.10;86.80
68691;DHT22;55675;49.588;8.640;2022-12-18T01:06:57;-3.10;86.80
68691;DHT22;55675;49.588;8.640;2022-12-18T01:09:22;-3.10;86.60
68691;DHT22;55675;49.588;8.640;2022-12-18T01:11:48;-3.10;86.60
68691;DHT22;55675;49.588;8.640;2022-12-18T01:14:13;-3.10;86.60
68691;DHT22;55675;49.588;8.640;2022-12-18T01:16:39;-3.10;86.40
68691;DHT22;55675;49.588;8.640;2022-12-18T01:19:04;-3.10;86.40
68691;DHT22;55675;49.588;8.640;2022-12-18T01:21:30;-3.10;86.40
68691;DHT22;55675;49.588;8.640;2022-12-18T01:23:56;-3.10;86.00
68691;DHT22;55675;49.588;8.640;2022-12-18T01:26:22;-3.10;86.30
68691;DHT22;55675;49.588;8.640;2022-12-18T01:28:48;-3.10;86.40
68691;DHT22;55675;49.588;8.640;2022-12-18T01:31:21;-3.10;86.30
68691;DHT22;55675;49.588;8.640;2022-12-18T01:33:47;-3.10;86.20
68691;DHT22;55675;49.588;8.640;2022-12-18T01:36:22;-3.10;86.20
68691;DHT22;55675;49.588;8.640;2022-12-18T01:38:49;-3.10;85.90
68691;DHT22;55675;49.588;8.640;2022-12-18T01:41:16;-3.10;86.00
68691;DHT22;55675;49.588;8.640;2022-12-18T01:43:51;-3.10;85.90
68691;DHT22;55675;49.588;8.640;2022-12-18T01:46:18;-3.10;86.40
68691;DHT22;55675;49.588;8.640;2022-12-18T01:48:46;-3.20;85.50
68691;DHT22;55675;49.588;8.640;2022-12-18T01:51:13;-3.30;85.60
68691;DHT22;55675;49.588;8.640;2022-12-18T01:53:41;-3.30;85.50
68691;DHT22;55675;49.588;8.640;2022-12-18T01:56:07;-3.30;85.90
68691;DHT22;55675;49.588;8.640;2022-12-18T02:01:07;-3.40;85.80
68691;DHT22;55675;49.588;8.640;2022-12-18T02:03:33;-3.50;85.90
68691;DHT22;55675;49.588;8.640;2022-12-18T02:06:15;-3.50;86.20
68691;DHT22;55675;49.588;8.640;2022-12-18T02:08:51;-3.40;86.40
68691;DHT22;55675;49.588;8.640;2022-12-18T02:22:20;-3.50;85.90
68691;DHT22;55675;49.588;8.640;2022-12-18T02:25:12;-3.70;85.80
68691;DHT22;55675;49.588;8.640;2022-12-18T02:27:39;-3.70;86.40
68691;DHT22;55675;49.588;8.640;2022-12-18T02:30:06;-3.70;86.60
68691;DHT22;55675;49.588;8.640;2022-12-18T02:32:40;-3.70;86.50
68691;DHT22;55675;49.588;8.640;2022-12-18T02:35:13;-3.60;87.20
68691;DHT22;55675;49.588;8.640;2022-12-18T02:37:42;-3.60;86.40
68691;DHT22;55675;49.588;8.640;2022-12-18T02:40:09;-3.70;85.90
68691;DHT22;55675;49.588;8.640;2022-12-18T02:42:35;-3.80;85.90
68691;DHT22;55675;49.588;8.640;2022-12-18T02:45:00;-3.90;85.90
68691;DHT22;55675;49.588;8.640;2022-12-18T02:47:32;-4.00;86.20
68691;DHT22;55675;49.588;8.640;2022-12-18T02:50:05;-4.00;86.90
68691;DHT22;55675;49.588;8.640;2022-12-18T02:55:20;-4.00;87.10
68691;DHT22;55675;49.588;8.640;2022-12-18T02:57:54;-3.80;87.00
68691;DHT22;55675;49.588;8.640;2022-12-18T03:00:24;-3.70;86.80
68691;DHT22;55675;49.588;8.640;2022-12-18T03:02:59;-3.70;86.50
68691;DHT22;55675;49.588;8.640;2022-12-18T03:05:40;-3.70;86.50
68691;DHT22;55675;49.588;8.640;2022-12-18T03:08:12;-3.70;86.20
68691;DHT22;55675;49.588;8.640;2022-12-18T03:10:44;-3.70;86.00
68691;DHT22;55675;49.588;8.640;2022-12-18T03:13:18;-3.70;86.10
68691;DHT22;55675;49.588;8.640;2022-12-18T03:15:49;-3.70;86.10
68691;DHT22;55675;49.588;8.640;2022-12-18T03:18:23;-3.80;86.10
68691;DHT22;55675;49.588;8.640;2022-12-18T03:20:52;-3.80;86.00
68691;DHT22;55675;49.588;8.640;2022-12-18T03:23:23;-3.90;86.10
68691;DHT22;55675;49.588;8.640;2022-12-18T03:25:51;-4.00;86.10
68691;DHT22;55675;49.588;8.640;2022-12-18T03:28:22;-4.00;86.30
68691;DHT22;55675;49.588;8.640;2022-12-18T03:30:52;-4.10;86.40
68691;DHT22;55675;49.588;8.640;2022-12-18T03:33:42;-4.10;87.00
68691;DHT22;55675;49.588;8.640;2022-12-18T03:36:09;-4.00;87.20
68691;DHT22;55675;49.588;8.640;2022-12-18T03:38:34;-4.00;87.10
68691;DHT22;55675;49.588;8.640;2022-12-18T03:43:37;-3.80;86.90
68691;DHT22;55675;49.588;8.640;2022-12-18T03:46:15;-3.80;86.60
68691;DHT22;55675;49.588;8.640;2022-12-18T03:48:46;-3.90;85.80
68691;DHT22;55675;49.588;8.640;2022-12-18T03:51:30;-4.10;85.60
68691;DHT22;55675;49.588;8.640;2022-12-18T03:54:01;-4.20;86.30
68691;DHT22;55675;49.588;8.640;2022-12-18T03:56:30;-4.20;86.70
68691;DHT22;55675;49.588;8.640;2022-12-18T03:58:58;-4.10;86.80
68691;DHT22;55675;49.588;8.640;2022-12-18T04:01:30;-4.00;86.80
68691;DHT22;55675;49.588;8.640;2022-12-18T04:03:58;-4.00;86.60
68691;DHT22;55675;49.588;8.640;2022-12-18T04:06:25;-3.90;86.30
68691;DHT22;55675;49.588;8.640;2022-12-18T04:08:51;-3.90;86.00
68691;DHT22;55675;49.588;8.640;2022-12-18T04:11:16;-3.90;86.00
68691;DHT22;55675;49.588;8.640;2022-12-18T04:13:42;-3.90;86.00
68691;DHT22;55675;49.588;8.640;2022-12-18T04:16:08;-3.90;85.90
68691;DHT22;55675;49.588;8.640;2022-12-18T04:18:35;-4.00;85.70
68691;DHT22;55675;49.588;8.640;2022-12-18T04:21:01;-4.10;86.00
68691;DHT22;55675;49.588;8.640;2022-12-18T04:23:26;-4.00;86.30
68691;DHT22;55675;49.588;8.640;2022-12-18T04:25:52;-3.90;86.40
68691;DHT22;55675;49.588;8.640;2022-12-18T04:28:17;-3.90;86.30
68691;DHT22;55675;49.588;8.640;2022-12-18T04:30:43;-3.80;86.00
68691;DHT22;55675;49.588;8.640;2022-12-18T04:33:10;-3.70;85.90
68691;DHT22;55675;49.588;8.640;2022-12-18T04:35:36;-3.70;85.50
68691;DHT22;55675;49.588;8.640;2022-12-18T04:38:01;-3.70;85.40
68691;DHT22;55675;49.588;8.640;2022-12-18T04:40:27;-3.70;85.30
68691;DHT22;55675;49.588;8.640;2022-12-18T04:42:52;-3.70;85.10
68691;DHT22;55675;49.588;8.640;2022-12-18T04:45:18;-3.70;84.90
68691;DHT22;55675;49.588;8.640;2022-12-18T04:47:43;-3.70;85.10
68691;DHT22;55675;49.588;8.640;2022-12-18T04:50:09;-3.70;85.00
68691;DHT22;55675;49.588;8.640;2022-12-18T04:52:35;-3.60;84.60
68691;DHT22;55675;49.588;8.640;2022-12-18T04:55:00;-3.70;84.50
68691;DHT22;55675;49.588;8.640;2022-12-18T04:57:25;-3.60;84.60
68691;DHT22;55675;49.588;8.640;2022-12-18T04:59:51;-3.60;84.60
68691;DHT22;55675;49.588;8.640;2022-12-18T05:02:17;-3.60;84.80
68691;DHT22;55675;49.588;8.640;2022-12-18T05:04:42;-3.60;85.00
68691;DHT22;55675;49.588;8.640;2022-12-18T05:07:08;-3.60;85.00
68691;DHT22;55675;49.588;8.640;2022-12-18T05:09:33;-3.60;85.00
68691;DHT22;55675;49.588;8.640;2022-12-18T05:11:59;-3.60;85.10
68691;DHT22;55675;49.588;8.640;2022-12-18T05:14:24;-3.60;85.00
68691;DHT22;55675;49.588;8.640;2022-12-18T05:16:50;-3.60;85.00
68691;DHT22;55675;49.588;8.640;2022-12-18T05:19:15;-3.60;85.00
68691;DHT22;55675;49.588;8.640;2022-12-18T05:21:41;-3.70;84.70
68691;DHT22;55675;49.588;8.640;2022-12-18T05:24:06;-3.70;84.70
68691;DHT22;55675;49.588;8.640;2022-12-18T05:26:32;-3.70;84.50
68691;DHT22;55675;49.588;8.640;2022-12-18T05:28:57;-3.60;84.40
68691;DHT22;55675;49.588;8.640;2022-12-18T05:31:23;-3.60;84.40
68691;DHT22;55675;49.588;8.640;2022-12-18T05:33:48;-3.60;84.20
68691;DHT22;55675;49.588;8.640;2022-12-18T05:36:14;-3.70;84.20
68691;DHT22;55675;49.588;8.640;2022-12-18T05:38:39;-3.80;84.10
68691;DHT22;55675;49.588;8.640;2022-12-18T05:41:06;-3.80;84.20
68691;DHT22;55675;49.588;8.640;2022-12-18T05:43:35;-3.80;84.50
68691;DHT22;55675;49.588;8.640;2022-12-18T05:46:09;-3.80;84.70
68691;DHT22;55675;49.588;8.640;2022-12-18T05:48:36;-3.80;84.90
68691;DHT22;55675;49.588;8.640;2022-12-18T05:51:06;-3.80;84.90
68691;DHT22;55675;49.588;8.640;2022-12-18T05:53:33;-3.80;84.90
68691;DHT22;55675;49.588;8.640;2022-12-18T05:56:03;-3.90;84.80
68691;DHT22;55675;49.588;8.640;2022-12-18T05:58:30;-3.90;84.60
68691;DHT22;55675;49.588;8.640;2022-12-18T06:00:56;-3.90;84.50
68691;DHT22;55675;49.588;8.640;2022-12-18T06:03:21;-4.10;84.60
68691;DHT22;55675;49.588;8.640;2022-12-18T06:05:47;-4.20;85.00
68691;DHT22;55675;49.588;8.640;2022-12-18T06:08:13;-4.20;85.40
68691;DHT22;55675;49.588;8.640;2022-12-18T06:10:39;-4.20;85.60
68691;DHT22;55675;49.588;8.640;2022-12-18T06:13:05;-4.10;85.60
68691;DHT22;55675;49.588;8.640;2022-12-18T06:15:31;-4.20;85.50
68691;DHT22;55675;49.588;8.640;2022-12-18T06:17:57;-4.30;85.50
68691;DHT22;55675;49.588;8.640;2022-12-18T06:20:23;-4.30;85.80
68691;DHT22;55675;49.588;8.640;2022-12-18T06:22:48;-4.30;86.00
68691;DHT22;55675;49.588;8.640;2022-12-18T06:25:14;-4.30;86.00
68691;DHT22;55675;49.588;8.640;2022-12-18T06:27:40;-4.20;86.10
68691;DHT22;55675;49.588;8.640;2022-12-18T06:30:06;-4.20;86.30
68691;DHT22;55675;49.588;8.640;2022-12-18T06:32:31;-4.40;86.40
68691;DHT22;55675;49.588;8.640;2022-12-18T06:34:57;-4.40;86.90
68691;DHT22;55675;49.588;8.640;2022-12-18T06:37:23;-4.30;86.90
68691;DHT22;55675;49.588;8.640;2022-12-18T06:39:53;-4.30;86.70
68691;DHT22;55675;49.588;8.640;2022-12-18T06:42:18;-4.20;86.50
68691;DHT22;55675;49.588;8.640;2022-12-18T06:44:44;-4.20;86.40
68691;DHT22;55675;49.588;8.640;2022-12-18T06:47:09;-4.20;86.30
68691;DHT22;55675;49.588;8.640;2022-12-18T06:49:35;-4.20;86.30
68691;DHT22;55675;49.588;8.640;2022-12-18T06:52:00;-4.30;86.40
68691;DHT22;55675;49.588;8.640;2022-12-18T06:54:26;-4.30;86.60
68691;DHT22;55675;49.588;8.640;2022-12-18T06:56:51;-4.20;86.70
68691;DHT22;55675;49.588;8.640;2022-12-18T06:59:17;-4.30;86.60
68691;DHT22;55675;49.588;8.640;2022-12-18T07:01:43;-4.30;86.60
68691;DHT22;55675;49.588;8.640;2022-12-18T07:04:08;-4.30;86.80
68691;DHT22;55675;49.588;8.640;2022-12-18T07:06:33;-4.30;86.90
68691;DHT22;55675;49.588;8.640;2022-12-18T07:08:59;-4.20;87.10
68691;DHT22;55675;49.588;8.640;2022-12-18T07:11:25;-4.20;87.80
68691;DHT22;55675;49.588;8.640;2022-12-18T07:13:51;-4.10;87.00
68691;DHT22;55675;49.588;8.640;2022-12-18T07:16:19;-4.20;86.40
68691;DHT22;55675;49.588;8.640;2022-12-18T07:18:45;-4.30;86.60
68691;DHT22;55675;49.588;8.640;2022-12-18T07:21:14;-4.40;87.30
68691;DHT22;55675;49.588;8.640;2022-12-18T07:23:40;-4.40;87.50
68691;DHT22;55675;49.588;8.640;2022-12-18T07:26:12;-4.30;87.70
68691;DHT22;55675;49.588;8.640;2022-12-18T07:28:39;-4.30;87.70
68691;DHT22;55675;49.588;8.640;2022-12-18T07:31:07;-4.10;87.70
68691;DHT22;55675;49.588;8.640;2022-12-18T07:33:33;-4.00;87.30
68691;DHT22;55675;49.588;8.640;2022-12-18T07:36:03;-4.00;86.80
68691;DHT22;55675;49.588;8.640;2022-12-18T07:38:29;-4.00;86.60
68691;DHT22;55675;49.588;8.640;2022-12-18T07:41:03;-4.00;86.50
68691;DHT22;55675;49.588;8.640;2022-12-18T07:43:29;-4.00;86.30
68691;DHT22;55675;49.588;8.640;2022-12-18T07:45:55;-4.00;86.30
68691;DHT22;55675;49.588;8.640;2022-12-18T07:48:21;-4.00;85.50
68691;DHT22;55675;49.588;8.640;2022-12-18T07:50:47;-4.00;85.90
68691;DHT22;55675;49.588;8.640;2022-12-18T07:53:12;-4.00;85.90
68691;DHT22;55675;49.588;8.640;2022-12-18T07:55:40;-3.90;85.50
68691;DHT22;55675;49.588;8.640;2022-12-18T07:58:06;-3.90;85.10
68691;DHT22;55675;49.588;8.640;2022-12-18T08:00:32;-3.90;85.10
68691;DHT22;55675;49.588;8.640;2022-12-18T08:02:58;-3.90;84.90
68691;DHT22;55675;49.588;8.640;2022-12-18T08:05:23;-3.80;84.80
68691;DHT22;55675;49.588;8.640;2022-12-18T08:07:49;-3.80;84.90
68691;DHT22;55675;49.588;8.640;2022-12-18T08:10:14;-3.80;84.80
68691;DHT22;55675;49.588;8.640;2022-12-18T08:12:40;-3.80;84.80
68691;DHT22;55675;49.588;8.640;2022-12-18T08:15:06;-3.70;84.90
68691;DHT22;55675;49.588;8.640;2022-12-18T08:17:32;-3.70;84.60
68691;DHT22;55675;49.588;8.640;2022-12-18T08:19:57;-3.70;84.20
68691;DHT22;55675;49.588;8.640;2022-12-18T08:22:23;-3.70;84.30
68691;DHT22;55675;49.588;8.640;2022-12-18T08:24:48;-3.70;84.10
68691;DHT22;55675;49.588;8.640;2022-12-18T08:27:14;-3.70;84.40
68691;DHT22;55675;49.588;8.640;2022-12-18T08:29:39;-3.70;84.50
68691;DHT22;55675;49.588;8.640;2022-12-18T08:32:05;-3.70;84.10
68691;DHT22;55675;49.588;8.640;2022-12-18T08:34:30;-3.60;84.00
68691;DHT22;55675;49.588;8.640;2022-12-18T08:36:56;-3.60;84.00
68691;DHT22;55675;49.588;8.640;2022-12-18T08:39:21;-3.70;83.50
68691;DHT22;55675;49.588;8.640;2022-12-18T08:41:47;-3.60;83.80
68691;DHT22;55675;49.588;8.640;2022-12-18T08:44:32;-3.70;83.30
68691;DHT22;55675;49.588;8.640;2022-12-18T08:47:05;-3.70;83.50
68691;DHT22;55675;49.588;8.640;2022-12-18T08:49:31;-3.60;83.90
68691;DHT22;55675;49.588;8.640;2022-12-18T08:51:57;-3.40;84.00
68691;DHT22;55675;49.588;8.640;2022-12-18T08:54:24;-3.20;83.80
68691;DHT22;55675;49.588;8.640;2022-12-18T08:56:50;-3.10;83.40
68691;DHT22;55675;49.588;8.640;2022-12-18T08:59:19;-3.00;83.10
68691;DHT22;55675;49.588;8.640;2022-12-18T09:01:45;-3.00;81.80
68691;DHT22;55675;49.588;8.640;2022-12-18T09:04:11;-3.20;80.80
68691;DHT22;55675;49.588;8.640;2022-12-18T09:06:37;-3.30;81.50
68691;DHT22;55675;49.588;8.640;2022-12-18T09:09:04;-3.30;82.10
68691;DHT22;55675;49.588;8.640;2022-12-18T09:11:30;-3.30;82.10
68691;DHT22;55675;49.588;8.640;2022-12-18T09:13:57;-3.20;82.30
68691;DHT22;55675;49.588;8.640;2022-12-18T09:16:24;-3.20;82.40
68691;DHT22;55675;49.588;8.640;2022-12-18T09:18:50;-3.10;82.40
68691;DHT22;55675;49.588;8.640;2022-12-18T09:21:20;-3.10;82.20
68691;DHT22;55675;49.588;8.640;2022-12-18T09:23:52;-3.10;82.60
68691;DHT22;55675;49.588;8.640;2022-12-18T09:26:18;-3.00;82.60
68691;DHT22;55675;49.588;8.640;2022-12-18T09:28:44;-3.00;82.50
68691;DHT22;55675;49.588;8.640;2022-12-18T09:31:11;-3.00;82.20
68691;DHT22;55675;49.588;8.640;2022-12-18T09:33:37;-3.00;82.30
68691;DHT22;55675;49.588;8.640;2022-12-18T09:36:05;-2.90;82.40
68691;DHT22;55675;49.588;8.640;2022-12-18T09:38:32;-2.90;82.40
68691;DHT22;55675;49.588;8.640;2022-12-18T09:41:03;-2.90;82.60
68691;DHT22;55675;49.588;8.640;2022-12-18T09:43:37;-2.80;82.90
68691;DHT22;55675;49.588;8.640;2022-12-18T09:46:10;-2.70;82.90
68691;DHT22;55675;49.588;8.640;2022-12-18T09:48:46;-2.60;83.10
68691;DHT22;55675;49.588;8.640;2022-12-18T09:51:16;-2.50;83.20
68691;DHT22;55675;49.588;8.640;2022-12-18T09:53:47;-2.50;83.00
68691;DHT22;55675;49.588;8.640;2022-12-18T09:56:18;-2.40;82.90
68691;DHT22;55675;49.588;8.640;2022-12-18T09:58:59;-2.40;82.60
68691;DHT22;55675;49.588;8.640;2022-12-18T10:01:26;-2.40;82.80
68691;DHT22;55675;49.588;8.640;2022-12-18T10:03:53;-2.30;83.00
68691;DHT22;55675;49.588;8.640;2022-12-18T10:06:47;-2.20;83.00
68691;DHT22;55675;49.588;8.640;2022-12-18T10:17:26;-2.20;82.20
68691;DHT22;55675;49.588;8.640;2022-12-18T10:19:59;-2.20;82.30
68691;DHT22;55675;49.588;8.640;2022-12-18T10:22:36;-2.10;82.60
68691;DHT22;55675;49.588;8.640;2022-12-18T10:25:05;-2.10;82.80
68691;DHT22;55675;49.588;8.640;2022-12-18T10:27:37;-2.00;83.30
68691;DHT22;55675;49.588;8.640;2022-12-18T10:30:12;-1.90;83.50
68691;DHT22;55675;49.588;8.640;2022-12-18T10:32:39;-1.80;83.30
68691;DHT22;55675;49.588;8.640;2022-12-18T10:35:07;-1.60;83.30
68691;DHT22;55675;49.588;8.640;2022-12-18T10:38:04;-1.50;82.80
68691;DHT22;55675;49.588;8.640;2022-12-18T10:40:31;-1.40;82.30
68691;DHT22;55675;49.588;8.640;2022-12-18T10:43:13;-1.40;81.60
68691;DHT22;55675;49.588;8.640;2022-12-18T10:45:40;-1.40;81.70
68691;DHT22;55675;49.588;8.640;2022-12-18T10:48:19;-1.30;81.60
68691;DHT22;55675;49.588;8.640;2022-12-18T10:50:48;-1.30;80.40
68691;DHT22;55675;49.588;8.640;2022-12-18T10:53:20;-1.30;80.30
68691;DHT22;55675;49.588;8.640;2022-12-18T10:55:47;-1.40;79.90
68691;DHT22;55675;49.588;8.640;2022-12-18T11:01:14;-1.40;80.70
68691;DHT22;55675;49.588;8.640;2022-12-18T11:04:00;-1.40;81.20
68691;DHT22;55675;49.588;8.640;2022-12-18T11:06:27;-1.30;81.60
68691;DHT22;55675;49.588;8.640;2022-12-18T11:09:10;-1.20;81.30
68691;DHT22;55675;49.588;8.640;2022-12-18T11:11:52;-1.10;80.90
68691;DHT22;55675;49.588;8.640;2022-12-18T11:15:04;-1.00;80.80
68691;DHT22;55675;49.588;8.640;2022-12-18T11:19:44;-0.90;80.80
68691;DHT22;55675;49.588;8.640;2022-12-18T11:22:41;-0.80;80.90
68691;DHT22;55675;49.588;8.640;2022-12-18T11:25:18;-0.80;80.60
68691;DHT22;55675;49.588;8.640;2022-12-18T11:27:51;-0.70;80.40
68691;DHT22;55675;49.588;8.640;2022-12-18T11:33:03;-0.40;80.40
68691;DHT22;55675;49.588;8.640;2022-12-18T11:35:50;-0.40;79.80
68691;DHT22;55675;49.588;8.640;2022-12-18T11:38:23;-0.40;79.80
68691;DHT22;55675;49.588;8.640;2022-12-18T11:41:00;-0.30;79.90
68691;DHT22;55675;49.588;8.640;2022-12-18T11:43:40;-0.20;80.10
68691;DHT22;55675;49.588;8.640;2022-12-18T11:46:12;-0.10;79.80
68691;DHT22;55675;49.588;8.640;2022-12-18T11:48:49;0.00;80.10
68691;DHT22;55675;49.588;8.640;2022-12-18T11:51:27;0.20;79.90
68691;DHT22;55675;49.588;8.640;2022-12-18T11:53:55;0.30;80.10
68691;DHT22;55675;49.588;8.640;2022-12-18T11:56:32;0.50;79.80
68691;DHT22;55675;49.588;8.640;2022-12-18T11:59:29;0.50;78.50
68691;DHT22;55675;49.588;8.640;2022-12-18T12:07:37;0.70;78.70
68691;DHT22;55675;49.588;8.640;2022-12-18T12:10:33;0.80;77.90
68691;DHT22;55675;49.588;8.640;2022-12-18T12:13:16;0.90;78.00
68691;DHT22;55675;49.588;8.640;2022-12-18T12:16:25;0.90;77.10
68691;DHT22;55675;49.588;8.640;2022-12-18T12:19:16;0.80;76.80
68691;DHT22;55675;49.588;8.640;2022-12-18T12:21:52;0.90;77.60
68691;DHT22;55675;49.588;8.640;2022-12-18T12:24:59;1.10;77.60
68691;DHT22;55675;49.588;8.640;2022-12-18T12:27:55;1.10;76.40
68691;DHT22;55675;49.588;8.640;2022-12-18T12:30:33;1.10;76.50
68691;DHT22;55675;49.588;8.640;2022-12-18T12:33:34;1.30;76.60
68691;DHT22;55675;49.588;8.640;2022-12-18T12:36:31;1.30;76.20
68691;DHT22;55675;49.588;8.640;2022-12-18T12:39:09;1.40;75.90
68691;DHT22;55675;49.588;8.640;2022-12-18T12:41:37;1.40;75.80
68691;DHT22;55675;49.588;8.640;2022-12-18T12:44:27;1.40;74.80
68691;DHT22;55675;49.588;8.640;2022-12-18T12:46:57;1.40;74.50
68691;DHT22;55675;49.588;8.640;2022-12-18T12:49:27;1.40;74.30
68691;DHT22;55675;49.588;8.640;2022-12-18T12:52:12;1.50;74.30
68691;DHT22;55675;49.588;8.640;2022-12-18T12:54:39;1.50;74.50
68691;DHT22;55675;49.588;8.640;2022-12-18T13:00:13;1.70;74.20
68691;DHT22;55675;49.588;8.640;2022-12-18T13:05:56;1.50;74.40
68691;DHT22;55675;49.588;8.640;2022-12-18T13:08:32;1.40;74.10
68691;DHT22;55675;49.588;8.640;2022-12-18T13:14:21;1.10;74.90
68691;DHT22;55675;49.588;8.640;2022-12-18T13:16:47;1.10;75.30
68691;DHT22;55675;49.588;8.640;2022-12-18T13:19:22;1.10;75.50
68691;DHT22;55675;49.588;8.640;2022-12-18T13:21:53;1.20;75.20
68691;DHT22;55675;49.588;8.640;2022-12-18T13:24:26;1.30;75.20
68691;DHT22;55675;49.588;8.640;2022-12-18T13:26:52;1.20;75.00
68691;DHT22;55675;49.588;8.640;2022-12-18T13:29:42;1.20;75.30
68691;DHT22;55675;49.588;8.640;2022-12-18T13:32:23;1.30;75.40
68691;DHT22;55675;49.588;8.640;2022-12-18T13:34:51;1.30;75.30
68691;DHT22;55675;49.588;8.640;2022-12-18T13:37:43;1.30;74.60
68691;DHT22;55675;49.588;8.640;2022-12-18T13:45:50;1.40;75.30
68691;DHT22;55675;49.588;8.640;2022-12-18T13:48:25;1.40;75.50
68691;DHT22;55675;49.588;8.640;2022-12-18T13:50:57;1.40;74.90
68691;DHT22;55675;49.588;8.640;2022-12-18T13:56:26;1.20;74.60
68691;DHT22;55675;49.588;8.640;2022-12-18T14:01:46;1.10;74.60
68691;DHT22;55675;49.588;8.640;2022-12-18T14:04:27;1.10;74.90
68691;DHT22;55675;49.588;8.640;2022-12-18T14:07:00;1.00;75.00
68691;DHT22;55675;49.588;8.640;2022-12-18T14:09:51;0.90;75.00
68691;DHT22;55675;49.588;8.640;2022-12-18T14:12:21;0.80;75.40
68691;DHT22;55675;49.588;8.640;2022-12-18T14:17:42;0.70;75.70
68691;DHT22;55675;49.588;8.640;2022-12-18T14:20:14;0.70;75.90
68691;DHT22;55675;49.588;8.640;2022-12-18T14:22:43;0.60;76.20
68691;DHT22;55675;49.588;8.640;2022-12-18T14:27:49;0.30;77.20
68691;DHT22;55675;49.588;8.640;2022-12-18T14:30:31;0.30;77.40
68691;DHT22;55675;49.588;8.640;2022-12-18T14:33:01;0.40;77.60
68691;DHT22;55675;49.588;8.640;2022-12-18T14:35:27;0.40;77.60
68691;DHT22;55675;49.588;8.640;2022-12-18T14:40:42;0.40;77.90
68691;DHT22;55675;49.588;8.640;2022-12-18T14:43:11;0.40;77.90
68691;DHT22;55675;49.588;8.640;2022-12-18T14:45:41;0.40;78.10
68691;DHT22;55675;49.588;8.640;2022-12-18T14:48:16;0.40;78.30
68691;DHT22;55675;49.588;8.640;2022-12-18T14:50:42;0.30;78.40
68691;DHT22;55675;49.588;8.640;2022-12-18T14:53:23;0.20;78.70
68691;DHT22;55675;49.588;8.640;2022-12-18T14:55:51;0.20;79.10
68691;DHT22;55675;49.588;8.640;2022-12-18T14:58:17;0.10;79.30
68691;DHT22;55675;49.588;8.640;2022-12-18T15:00:43;0.20;79.40
68691;DHT22;55675;49.588;8.640;2022-12-18T15:03:09;0.10;79.40
68691;DHT22;55675;49.588;8.640;2022-12-18T15:05:35;0.10;79.60
68691;DHT22;55675;49.588;8.640;2022-12-18T15:08:01;0.00;79.60
68691;DHT22;55675;49.588;8.640;2022-12-18T15:10:32;0.00;79.80
68691;DHT22;55675;49.588;8.640;2022-12-18T15:23:12;-0.20;80.30
68691;DHT22;55675;49.588;8.640;2022-12-18T15:25:37;-0.20;80.40
68691;DHT22;55675;49.588;8.640;2022-12-18T15:28:04;-0.20;80.50
68691;DHT22;55675;49.588;8.640;2022-12-18T15:30:40;-0.30;80.70
68691;DHT22;55675;49.588;8.640;2022-12-18T15:33:25;-0.40;80.90
68691;DHT22;55675;49.588;8.640;2022-12-18T15:36:01;-0.40;81.30
68691;DHT22;55675;49.588;8.640;2022-12-18T15:38:27;-0.40;81.50
68691;DHT22;55675;49.588;8.640;2022-12-18T15:40:53;-0.40;81.60
68691;DHT22;55675;49.588;8.640;2022-12-18T15:43:21;-0.50;81.60
68691;DHT22;55675;49.588;8.640;2022-12-18T15:46:05;-0.50;81.70
68691;DHT22;55675;49.588;8.640;2022-12-18T15:48:33;-0.50;81.70
68691;DHT22;55675;49.588;8.640;2022-12-18T15:50:59;-0.50;81.70
68691;DHT22;55675;49.588;8.640;2022-12-18T15:53:30;-0.60;81.90
68691;DHT22;55675;49.588;8.640;2022-12-18T15:55:56;-0.60;82.10
68691;DHT22;55675;49.588;8.640;2022-12-18T15:58:40;-0.60;82.20
68691;DHT22;55675;49.588;8.640;2022-12-18T16:01:08;-0.50;82.30
68691;DHT22;55675;49.588;8.640;2022-12-18T16:03:34;-0.50;82.40
68691;DHT22;55675;49.588;8.640;2022-12-18T16:06:00;-0.50;82.50
68691;DHT22;55675;49.588;8.640;2022-12-18T16:08:28;-0.50;82.50
68691;DHT22;55675;49.588;8.640;2022-12-18T16:10:54;-0.50;82.70
68691;DHT22;55675;49.588;8.640;2022-12-18T16:13:20;-0.50;83.50
68691;DHT22;55675;49.588;8.640;2022-12-18T16:15:45;-0.50;82.80
68691;DHT22;55675;49.588;8.640;2022-12-18T16:18:11;-0.40;82.80
68691;DHT22;55675;49.588;8.640;2022-12-18T16:20:38;-0.40;83.20
68691;DHT22;55675;49.588;8.640;2022-12-18T16:23:04;-0.30;82.60
68691;DHT22;55675;49.588;8.640;2022-12-18T16:25:30;-0.30;82.60
68691;DHT22;55675;49.588;8.640;2022-12-18T16:27:56;-0.30;82.50
68691;DHT22;55675;49.588;8.640;2022-12-18T16:30:28;-0.30;82.50
68691;DHT22;55675;49.588;8.640;2022-12-18T16:32:56;-0.30;82.50
68691;DHT22;55675;49.588;8.640;2022-12-18T16:35:21;-0.20;82.50
68691;DHT22;55675;49.588;8.640;2022-12-18T16:37:47;-0.20;82.50
68691;DHT22;55675;49.588;8.640;2022-12-18T16:40:15;-0.20;82.60
68691;DHT22;55675;49.588;8.640;2022-12-18T16:42:42;-0.20;82.60
68691;DHT22;55675;49.588;8.640;2022-12-18T16:45:11;-0.10;82.70
68691;DHT22;55675;49.588;8.640;2022-12-18T16:47:37;-0.20;82.60
68691;DHT22;55675;49.588;8.640;2022-12-18T16:50:03;-0.10;82.60
68691;DHT22;55675;49.588;8.640;2022-12-18T16:52:29;-0.20;82.70
68691;DHT22;55675;49.588;8.640;2022-12-18T16:54:55;-0.20;82.70
68691;DHT22;55675;49.588;8.640;2022-12-18T16:57:21;-0.20;82.70
68691;DHT22;55675;49.588;8.640;2022-12-18T16:59:47;-0.20;82.70
68691;DHT22;55675;49.588;8.640;2022-12-18T17:02:17;-0.30;82.60
68691;DHT22;55675;49.588;8.640;2022-12-18T17:04:43;-0.30;82.90
68691;DHT22;55675;49.588;8.640;2022-12-18T17:07:09;-0.20;82.90
68691;DHT22;55675;49.588;8.640;2022-12-18T17:09:35;-0.30;82.80